createdAt,value
2023-03-06T00:00:24.717Z,100.00
2023-03-06T00:02:53.681Z,100.00
2023-03-06T00:05:21.873Z,100.00
2023-03-06T00:07:49.917Z,100.00
2023-03-06T00:10:21.059Z,100.00
2023-03-06T00:12:49.401Z,100.00
2023-03-06T00:15:17.427Z,100.00
2023-03-06T00:17:45.530Z,100.00
2023-03-06T00:20:14.609Z,100.00
2023-03-06T00:22:43.479Z,100.00
2023-03-06T00:25:15.691Z,100.00
2023-03-06T00:27:48.416Z,100.00
2023-03-06T00:30:19.454Z,100.00
2023-03-06T00:32:47.597Z,100.00
2023-03-06T00:35:16.503Z,100.00
2023-03-06T00:37:45.008Z,100.00
2023-03-06T00:40:15.645Z,100.00
2023-03-06T00:42:43.892Z,100.00
2023-03-06T00:45:13.820Z,100.00
2023-03-06T00:47:42.415Z,100.00
2023-03-06T00:50:11.983Z,100.00
2023-03-06T00:52:41.895Z,100.00
2023-03-06T00:55:10.793Z,100.00
2023-03-06T00:57:41.690Z,100.00
2023-03-06T01:00:11.687Z,100.00
2023-03-06T01:02:41.632Z,100.00
2023-03-06T01:05:10.418Z,100.00
2023-03-06T01:07:38.450Z,100.00
2023-03-06T01:10:08.644Z,100.00
2023-03-06T01:12:36.771Z,100.00
2023-03-06T01:15:05.726Z,100.00
2023-03-06T01:17:33.823Z,100.00
2023-03-06T01:20:03.302Z,100.00
2023-03-06T01:22:31.595Z,100.00
2023-03-06T01:24:59.607Z,100.00
2023-03-06T01:27:30.216Z,100.00
2023-03-06T01:29:58.367Z,100.00
2023-03-06T01:32:26.710Z,100.00
2023-03-06T01:34:55.135Z,100.00
2023-03-06T01:37:24.869Z,100.00
2023-03-06T01:39:52.959Z,100.00
2023-03-06T01:42:21.003Z,100.00
2023-03-06T01:45:03.830Z,100.00
2023-03-06T01:47:31.868Z,100.00
2023-03-06T01:50:01.976Z,100.00
2023-03-06T01:52:37.282Z,100.00
2023-03-06T01:55:06.824Z,100.00
2023-03-06T01:57:38.981Z,100.00
2023-03-06T02:00:10.678Z,100.00
2023-03-06T02:02:39.614Z,100.00
2023-03-06T02:05:10.338Z,100.00
2023-03-06T02:07:44.340Z,100.00
2023-03-06T02:10:13.558Z,100.00
2023-03-06T02:12:43.767Z,100.00
2023-03-06T02:15:12.569Z,100.00
2023-03-06T02:17:42.813Z,100.00
2023-03-06T02:20:14.945Z,100.00
2023-03-06T02:22:55.385Z,100.00
2023-03-06T02:25:33.365Z,100.00
2023-03-06T02:28:01.691Z,100.00
2023-03-06T02:30:31.071Z,100.00
2023-03-06T02:32:59.667Z,100.00
2023-03-06T02:35:30.438Z,100.00
2023-03-06T02:38:00.367Z,100.00
2023-03-06T02:40:30.239Z,100.00
2023-03-06T02:43:00.052Z,100.00
2023-03-06T02:45:34.903Z,100.00
2023-03-06T02:48:03.212Z,100.00
2023-03-06T02:50:32.057Z,100.00
2023-03-06T02:53:02.944Z,100.00
2023-03-06T02:55:32.550Z,100.00
2023-03-06T02:58:00.641Z,100.00
2023-03-06T03:00:30.707Z,100.00
2023-03-06T03:02:58.795Z,100.00
2023-03-06T03:05:26.835Z,100.00
2023-03-06T03:07:54.890Z,100.00
2023-03-06T03:10:23.318Z,100.00
2023-03-06T03:12:53.980Z,100.00
2023-03-06T03:15:22.294Z,100.00
2023-03-06T03:17:50.374Z,100.00
2023-03-06T03:20:20.719Z,100.00
2023-03-06T03:22:50.151Z,100.00
2023-03-06T03:25:18.722Z,100.00
2023-03-06T03:27:46.945Z,100.00
2023-03-06T03:30:17.319Z,100.00
2023-03-06T03:32:45.360Z,100.00
2023-03-06T03:35:13.867Z,100.00
2023-03-06T03:37:41.917Z,100.00
2023-03-06T03:40:11.612Z,100.00
2023-03-06T03:42:39.565Z,100.00
2023-03-06T03:45:08.743Z,100.00
2023-03-06T03:47:38.393Z,100.00
2023-03-06T03:50:07.464Z,100.00
2023-03-06T03:52:35.487Z,100.00
2023-03-06T03:55:03.584Z,100.00
2023-03-06T03:57:31.934Z,100.00
2023-03-06T04:00:05.167Z,100.00
2023-03-06T04:02:33.209Z,100.00
2023-03-06T04:05:02.693Z,100.00
2023-03-06T04:07:30.869Z,100.00
2023-03-06T04:09:58.897Z,100.00
2023-03-06T04:12:26.894Z,100.00
2023-03-06T04:14:54.974Z,100.00
2023-03-06T04:17:26.148Z,100.00
2023-03-06T04:19:54.264Z,100.00
2023-03-06T04:22:23.707Z,100.00
2023-03-06T04:24:52.007Z,100.00
2023-03-06T04:27:20.001Z,100.00
2023-03-06T04:29:48.181Z,100.00
2023-03-06T04:32:16.470Z,100.00
2023-03-06T04:34:44.568Z,100.00
2023-03-06T04:37:20.415Z,100.00
2023-03-06T04:39:53.262Z,100.00
2023-03-06T04:42:21.449Z,100.00
2023-03-06T04:44:49.593Z,100.00
2023-03-06T04:47:19.212Z,100.00
2023-03-06T04:49:47.596Z,100.00
2023-03-06T04:52:15.647Z,100.00
2023-03-06T04:54:43.954Z,100.00
2023-03-06T04:57:16.664Z,100.00
2023-03-06T04:59:44.757Z,100.00
2023-03-06T05:02:12.836Z,100.00
2023-03-06T05:04:40.951Z,100.00
2023-03-06T05:07:09.109Z,100.00
2023-03-06T05:09:38.831Z,100.00
2023-03-06T05:12:07.550Z,100.00
2023-03-06T05:14:36.960Z,100.00
2023-03-06T05:17:05.333Z,100.00
2023-03-06T05:19:33.365Z,100.00
2023-03-06T05:22:01.477Z,100.00
2023-03-06T05:24:29.628Z,100.00
2023-03-06T05:26:57.890Z,100.00
2023-03-06T05:29:25.877Z,100.00
2023-03-06T05:31:55.922Z,100.00
2023-03-06T05:34:24.088Z,100.00
2023-03-06T05:36:52.126Z,100.00
2023-03-06T05:39:20.952Z,100.00
2023-03-06T05:41:49.014Z,100.00
2023-03-06T05:44:17.065Z,100.00
2023-03-06T05:46:45.109Z,100.00
2023-03-06T05:49:14.505Z,100.00
2023-03-06T05:51:42.571Z,100.00
2023-03-06T05:54:10.630Z,100.00
2023-03-06T05:56:38.656Z,100.00
2023-03-06T05:59:06.744Z,100.00
2023-03-06T06:01:34.960Z,100.00
2023-03-06T06:04:06.320Z,100.00
2023-03-06T06:06:35.736Z,100.00
2023-03-06T06:09:03.826Z,100.00
2023-03-06T06:11:31.869Z,100.00
2023-03-06T06:13:59.936Z,100.00
2023-03-06T06:16:28.126Z,100.00
2023-03-06T06:18:56.213Z,100.00
2023-03-06T06:21:24.315Z,100.00
2023-03-06T06:23:53.760Z,100.00
2023-03-06T06:26:21.843Z,100.00
2023-03-06T06:28:49.854Z,100.00
2023-03-06T06:31:17.989Z,100.00
2023-03-06T06:33:46.143Z,100.00
2023-03-06T06:36:19.237Z,100.00
2023-03-06T06:38:47.370Z,100.00
2023-03-06T06:44:08.527Z,100.00
2023-03-06T06:47:20.805Z,100.00
2023-03-06T06:49:25.502Z,100.00
2023-03-06T06:51:53.559Z,100.00
2023-03-06T06:54:22.437Z,100.00
2023-03-06T06:56:54.728Z,100.00
2023-03-06T06:59:23.720Z,100.00
2023-03-06T07:01:52.212Z,100.00
2023-03-06T07:04:21.145Z,100.00
2023-03-06T07:06:49.229Z,100.00
2023-03-06T07:09:17.388Z,100.00
2023-03-06T07:11:45.401Z,100.00
2023-03-06T07:14:14.888Z,100.00
2023-03-06T07:16:42.895Z,100.00
2023-03-06T07:19:13.463Z,100.00
2023-03-06T07:21:41.768Z,100.00
2023-03-06T07:24:09.926Z,100.00
2023-03-06T07:26:37.971Z,100.00
2023-03-06T07:29:06.229Z,100.00
2023-03-06T07:31:35.732Z,100.00
2023-03-06T07:34:05.993Z,100.00
2023-03-06T07:36:34.756Z,100.00
2023-03-06T07:39:05.179Z,100.00
2023-03-06T07:41:33.219Z,100.00
2023-03-06T07:44:01.286Z,100.00
2023-03-06T07:46:29.906Z,100.00
2023-03-06T07:48:59.368Z,100.00
2023-03-06T07:51:27.550Z,100.00
2023-03-06T07:53:55.760Z,100.00
2023-03-06T07:56:24.599Z,100.00
2023-03-06T07:58:52.628Z,100.00
2023-03-06T08:01:23.636Z,100.00
2023-03-06T08:03:52.148Z,100.00
2023-03-06T08:06:26.085Z,100.00
2023-03-06T08:08:55.555Z,100.00
2023-03-06T08:11:25.598Z,100.00
2023-03-06T08:13:54.237Z,100.00
2023-03-06T08:16:28.154Z,100.00
2023-03-06T08:18:56.694Z,100.00
2023-03-06T08:21:29.124Z,100.00
2023-03-06T08:23:57.209Z,100.00
2023-03-06T08:26:26.745Z,100.00
2023-03-06T08:28:56.077Z,100.00
2023-03-06T08:31:28.210Z,100.00
2023-03-06T08:34:00.972Z,100.00
2023-03-06T08:36:33.648Z,100.00
2023-03-06T08:39:02.485Z,100.00
2023-03-06T08:41:31.061Z,100.00
2023-03-06T08:43:59.227Z,100.00
2023-03-06T08:46:28.961Z,100.00
2023-03-06T08:48:57.609Z,100.00
2023-03-06T08:51:26.512Z,100.00
2023-03-06T08:53:57.334Z,100.00
2023-03-06T08:56:27.181Z,100.00
2023-03-06T08:58:56.099Z,100.00
2023-03-06T09:01:26.230Z,100.00
2023-03-06T09:03:59.165Z,100.00
2023-03-06T09:06:30.918Z,100.00
2023-03-06T09:09:01.034Z,100.00
2023-03-06T09:11:29.522Z,100.00
2023-03-06T09:13:58.195Z,100.00
2023-03-06T09:16:26.739Z,100.00
2023-03-06T09:18:55.018Z,100.00
2023-03-06T09:21:23.788Z,100.00
2023-03-06T09:23:52.187Z,100.00
2023-03-06T09:26:22.422Z,100.00
2023-03-06T09:28:51.870Z,100.00
2023-03-06T09:31:21.504Z,100.00
2023-03-06T09:33:49.770Z,100.00
2023-03-06T09:36:21.068Z,100.00
2023-03-06T09:38:50.085Z,100.00
2023-03-06T09:41:26.703Z,100.00
2023-03-06T09:43:57.514Z,100.00
2023-03-06T09:46:32.312Z,100.00
2023-03-06T09:49:25.444Z,100.00
2023-03-06T09:51:57.224Z,100.00
2023-03-06T09:54:34.212Z,100.00
2023-03-06T09:57:04.330Z,100.00
2023-03-06T09:59:33.307Z,100.00
2023-03-06T10:02:10.228Z,100.00
2023-03-06T10:04:43.979Z,100.00
2023-03-06T10:07:16.732Z,100.00
2023-03-06T10:09:47.897Z,100.00
2023-03-06T10:12:24.929Z,100.00
2023-03-06T10:15:08.314Z,100.00
2023-03-06T10:17:42.369Z,100.00
2023-03-06T10:20:17.810Z,100.00
2023-03-06T10:23:01.295Z,100.00
2023-03-06T10:25:38.784Z,100.00
2023-03-06T10:28:16.778Z,100.00
2023-03-06T10:30:52.634Z,100.00
2023-03-06T10:33:35.464Z,100.00
2023-03-06T10:36:04.654Z,98.02
2023-03-06T10:38:37.800Z,99.21
2023-03-06T10:41:08.990Z,99.28
2023-03-06T10:43:40.245Z,97.55
2023-03-06T10:46:10.013Z,95.50
2023-03-06T10:48:42.549Z,93.49
2023-03-06T10:51:19.131Z,88.68
2023-03-06T10:53:53.474Z,83.49
2023-03-06T10:56:29.708Z,80.90
2023-03-06T10:59:12.235Z,81.06
2023-03-06T11:01:41.983Z,85.89
2023-03-06T11:04:25.499Z,80.94
2023-03-06T11:07:07.993Z,81.43
2023-03-06T11:09:36.991Z,79.11
2023-03-06T11:12:26.498Z,78.03
2023-03-06T11:15:18.876Z,77.96
2023-03-06T11:17:56.763Z,77.51
2023-03-06T11:20:30.405Z,75.25
2023-03-06T11:23:09.297Z,75.18
2023-03-06T11:25:42.620Z,72.03
2023-03-06T11:28:21.823Z,70.97
2023-03-06T11:30:59.851Z,67.44
2023-03-06T11:33:31.963Z,64.67
2023-03-06T11:36:05.476Z,61.29
2023-03-06T11:38:43.451Z,61.22
2023-03-06T11:41:20.247Z,64.39
2023-03-06T11:43:56.376Z,66.98
2023-03-06T11:46:29.414Z,66.97
2023-03-06T11:49:06.468Z,66.71
2023-03-06T11:51:41.463Z,65.10
2023-03-06T11:54:13.666Z,62.97
2023-03-06T11:56:51.096Z,62.99
2023-03-06T11:59:38.497Z,62.70
2023-03-06T12:02:20.362Z,62.59
2023-03-06T12:04:54.872Z,61.86
2023-03-06T12:07:30.227Z,61.25
2023-03-06T12:10:15.018Z,60.98
2023-03-06T12:16:38.667Z,59.67
2023-03-06T12:19:23.288Z,56.37
2023-03-06T12:22:10.252Z,56.29
2023-03-06T12:25:10.463Z,56.67
2023-03-06T12:27:46.187Z,57.61
2023-03-06T12:30:30.275Z,57.08
2023-03-06T12:33:08.203Z,58.29
2023-03-06T12:35:57.664Z,58.77
2023-03-06T12:38:51.887Z,57.08
2023-03-06T12:41:34.558Z,56.93
2023-03-06T12:44:26.925Z,58.71
2023-03-06T12:46:59.009Z,57.09
2023-03-06T12:49:32.864Z,55.93
2023-03-06T12:52:05.912Z,57.54
2023-03-06T12:54:40.163Z,60.19
2023-03-06T12:57:12.526Z,60.48
2023-03-06T12:59:44.605Z,58.38
2023-03-06T13:02:51.458Z,55.95
2023-03-06T13:06:06.969Z,54.68
2023-03-06T13:09:13.224Z,56.26
2023-03-06T13:12:01.401Z,55.93
2023-03-06T13:14:54.619Z,57.54
2023-03-06T13:17:35.684Z,60.65
2023-03-06T13:20:35.021Z,63.32
2023-03-06T13:23:42.845Z,63.15
2023-03-06T13:26:33.161Z,62.44
2023-03-06T13:29:01.242Z,61.22
2023-03-06T13:31:52.138Z,60.86
2023-03-06T13:34:35.786Z,62.34
2023-03-06T13:38:00.313Z,62.63
2023-03-06T13:40:33.612Z,61.50
2023-03-06T13:43:32.884Z,60.19
2023-03-06T13:46:19.415Z,61.31
2023-03-06T13:48:47.731Z,62.64
2023-03-06T13:51:25.016Z,62.74
2023-03-06T13:54:22.140Z,63.19
2023-03-06T13:57:19.852Z,63.74
2023-03-06T14:00:11.811Z,67.00
2023-03-06T14:03:01.986Z,67.86
2023-03-06T14:05:42.114Z,68.82
2023-03-06T14:08:14.568Z,68.65
2023-03-06T14:10:45.175Z,70.43
2023-03-06T14:13:19.928Z,71.78
2023-03-06T14:15:51.705Z,72.94
2023-03-06T14:18:24.790Z,74.20
2023-03-06T14:20:57.171Z,72.49
2023-03-06T14:23:32.234Z,72.82
2023-03-06T14:26:15.582Z,74.73
2023-03-06T14:28:44.949Z,75.48
2023-03-06T14:31:18.097Z,76.72
2023-03-06T14:33:52.741Z,77.09
2023-03-06T14:36:23.045Z,77.65
2023-03-06T14:38:53.912Z,78.63
2023-03-06T14:41:27.756Z,79.79
2023-03-06T14:44:09.712Z,80.01
2023-03-06T14:46:39.737Z,80.54
2023-03-06T14:49:08.477Z,78.91
2023-03-06T14:51:42.828Z,80.17
2023-03-06T14:54:17.258Z,80.12
2023-03-06T14:56:48.562Z,79.22
2023-03-06T14:59:21.701Z,80.17
2023-03-06T15:01:54.153Z,81.26
2023-03-06T15:04:28.379Z,84.65
2023-03-06T15:06:58.268Z,94.35
2023-03-06T15:09:29.338Z,100.00
2023-03-06T15:12:02.070Z,100.00
2023-03-06T15:14:31.944Z,100.00
2023-03-06T15:17:23.971Z,100.00
2023-03-06T15:19:54.550Z,100.00
2023-03-06T15:22:32.295Z,100.00
2023-03-06T15:25:21.310Z,100.00
2023-03-06T15:27:51.129Z,100.00
2023-03-06T15:30:24.732Z,99.18
2023-03-06T15:33:10.050Z,99.22
2023-03-06T15:35:38.890Z,98.20
2023-03-06T15:38:25.256Z,97.60
2023-03-06T15:40:58.236Z,99.23
2023-03-06T15:43:26.569Z,97.30
2023-03-06T15:45:59.328Z,96.91
2023-03-06T15:48:29.546Z,98.64
2023-03-06T15:50:57.618Z,98.92
2023-03-06T15:53:25.842Z,100.00
2023-03-06T15:55:54.648Z,100.00
2023-03-06T15:58:24.988Z,100.00
2023-03-06T16:00:55.313Z,100.00
2023-03-06T16:03:23.402Z,100.00
2023-03-06T16:05:52.793Z,100.00
2023-03-06T16:08:20.843Z,100.00
2023-03-06T16:10:50.570Z,100.00
2023-03-06T16:13:26.821Z,100.00
2023-03-06T16:15:55.153Z,100.00
2023-03-06T16:18:26.160Z,100.00
2023-03-06T16:20:55.691Z,100.00
2023-03-06T16:23:23.718Z,100.00
2023-03-06T16:25:51.851Z,100.00
2023-03-06T16:28:20.107Z,100.00
2023-03-06T16:30:48.267Z,100.00
2023-03-06T16:33:16.320Z,100.00
2023-03-06T16:35:46.687Z,100.00
2023-03-06T16:38:16.772Z,100.00
2023-03-06T16:40:45.112Z,100.00
2023-03-06T16:43:16.148Z,100.00
2023-03-06T16:45:44.785Z,100.00
2023-03-06T16:48:17.799Z,100.00
2023-03-06T16:50:46.265Z,100.00
2023-03-06T16:53:15.405Z,100.00
2023-03-06T16:55:44.820Z,100.00
2023-03-06T16:58:12.919Z,100.00
2023-03-06T17:00:41.068Z,100.00
2023-03-06T17:03:09.102Z,100.00
2023-03-06T17:05:38.600Z,100.00
2023-03-06T17:08:06.833Z,100.00
2023-03-06T17:10:42.285Z,100.00
2023-03-06T17:13:12.480Z,100.00
2023-03-06T17:15:41.097Z,100.00
2023-03-06T17:18:09.116Z,100.00
2023-03-06T17:20:37.190Z,100.00
2023-03-06T17:23:05.250Z,100.00
2023-03-06T17:25:34.957Z,100.00
2023-03-06T17:28:03.195Z,100.00
2023-03-06T17:30:32.740Z,100.00
2023-03-06T17:33:00.871Z,100.00
2023-03-06T17:35:28.919Z,100.00
2023-03-06T17:37:58.465Z,100.00
2023-03-06T17:40:26.537Z,100.00
2023-03-06T17:42:54.614Z,100.00
2023-03-06T17:45:22.639Z,100.00
2023-03-06T17:47:55.495Z,100.00
2023-03-06T17:50:23.590Z,100.00
2023-03-06T17:52:51.638Z,100.00
2023-03-06T17:55:19.724Z,100.00
2023-03-06T17:57:47.787Z,100.00
2023-03-06T18:00:16.913Z,100.00
2023-03-06T18:02:45.391Z,100.00
2023-03-06T18:05:14.856Z,100.00
2023-03-06T18:07:42.959Z,100.00
2023-03-06T18:10:11.814Z,100.00
2023-03-06T18:12:39.927Z,100.00
2023-03-06T18:15:09.067Z,100.00
2023-03-06T18:17:37.074Z,100.00
2023-03-06T18:20:05.675Z,100.00
2023-03-06T18:22:37.908Z,100.00
2023-03-06T18:25:07.078Z,100.00
2023-03-06T18:27:35.505Z,100.00
2023-03-06T18:30:03.745Z,100.00
2023-03-06T18:32:31.885Z,100.00
2023-03-06T18:35:00.091Z,100.00
2023-03-06T18:37:30.410Z,100.00
2023-03-06T18:39:59.789Z,100.00
2023-03-06T18:42:27.807Z,100.00
2023-03-06T18:44:55.909Z,100.00
2023-03-06T18:47:23.950Z,100.00
2023-03-06T18:49:52.028Z,100.00
2023-03-06T18:52:20.309Z,100.00
2023-03-06T18:54:50.540Z,100.00
2023-03-06T18:57:20.072Z,100.00
2023-03-06T18:59:48.365Z,100.00
2023-03-06T19:02:16.430Z,100.00
2023-03-06T19:04:44.531Z,100.00
2023-03-06T19:07:14.564Z,100.00
2023-03-06T19:09:44.464Z,100.00
2023-03-06T19:12:12.711Z,100.00
2023-03-06T19:14:42.234Z,100.00
2023-03-06T19:17:10.504Z,100.00
2023-03-06T19:19:41.641Z,100.00
2023-03-06T19:22:09.672Z,100.00
2023-03-06T19:24:38.163Z,100.00
2023-03-06T19:27:06.210Z,100.00
2023-03-06T19:29:34.447Z,100.00
2023-03-06T19:32:03.958Z,100.00
2023-03-06T19:34:32.120Z,100.00
2023-03-06T19:37:02.461Z,100.00
2023-03-06T19:39:30.525Z,100.00
2023-03-06T19:41:58.614Z,100.00
2023-03-06T19:44:26.661Z,100.00
2023-03-06T19:46:54.724Z,100.00
2023-03-06T19:49:24.214Z,100.00
2023-03-06T19:51:52.334Z,100.00
2023-03-06T19:54:23.415Z,100.00
2023-03-06T19:56:51.661Z,100.00
2023-03-06T19:59:19.736Z,100.00
2023-03-06T20:01:47.906Z,100.00
2023-03-06T20:04:17.048Z,100.00
2023-03-06T20:06:46.782Z,100.00
2023-03-06T20:09:14.875Z,100.00
2023-03-06T20:11:42.918Z,100.00
2023-03-06T20:14:13.738Z,100.00
2023-03-06T20:17:05.214Z,100.00
2023-03-06T20:19:33.393Z,100.00
2023-03-06T20:22:05.141Z,100.00
2023-03-06T20:24:33.277Z,100.00
2023-03-06T20:27:04.453Z,100.00
2023-03-06T20:29:32.543Z,100.00
2023-03-06T20:32:03.030Z,100.00
2023-03-06T20:34:31.608Z,100.00
2023-03-06T20:37:02.639Z,100.00
2023-03-06T20:39:32.178Z,100.00
2023-03-06T20:42:00.501Z,100.00
2023-03-06T20:44:28.882Z,100.00
2023-03-06T20:46:56.961Z,100.00
2023-03-06T20:49:27.161Z,100.00
2023-03-06T20:51:58.270Z,100.00
2023-03-06T20:54:26.506Z,100.00
2023-03-06T20:56:55.932Z,100.00
2023-03-06T20:59:24.172Z,100.00
2023-03-06T21:01:52.332Z,100.00
2023-03-06T21:04:20.573Z,100.00
2023-03-06T21:06:48.621Z,100.00
2023-03-06T21:09:17.870Z,100.00
2023-03-06T21:11:49.145Z,100.00
2023-03-06T21:14:18.617Z,100.00
2023-03-06T21:16:46.774Z,100.00
2023-03-06T21:19:14.978Z,100.00
2023-03-06T21:21:43.079Z,100.00
2023-03-06T21:24:11.336Z,100.00
2023-03-06T21:26:39.430Z,100.00
2023-03-06T21:29:07.596Z,100.00
2023-03-06T21:31:37.199Z,100.00
2023-03-06T21:34:06.370Z,100.00
2023-03-06T21:36:34.962Z,100.00
2023-03-06T21:39:06.182Z,100.00
2023-03-06T21:41:34.887Z,100.00
2023-03-06T21:44:05.181Z,100.00
2023-03-06T21:46:33.905Z,100.00
2023-03-06T21:49:05.873Z,100.00
2023-03-06T21:51:34.447Z,100.00
2023-03-06T21:54:03.232Z,100.00
2023-03-06T21:56:33.326Z,100.00
2023-03-06T21:59:01.475Z,100.00
2023-03-06T22:01:30.058Z,100.00
2023-03-06T22:03:59.961Z,100.00
2023-03-06T22:06:31.471Z,100.00
2023-03-06T22:09:01.017Z,100.00
2023-03-06T22:11:31.387Z,100.00
2023-03-06T22:14:08.448Z,100.00
2023-03-06T22:16:36.563Z,100.00
2023-03-06T22:19:06.637Z,100.00
2023-03-06T22:21:36.111Z,100.00
2023-03-06T22:24:04.651Z,100.00
2023-03-06T22:26:32.773Z,100.00
2023-03-06T22:29:01.123Z,100.00
2023-03-06T22:31:30.402Z,100.00
2023-03-06T22:34:02.277Z,100.00
2023-03-06T22:36:31.596Z,100.00
2023-03-06T22:39:03.064Z,100.00
2023-03-06T22:41:32.009Z,100.00
2023-03-06T22:44:01.637Z,100.00
2023-03-06T22:46:30.341Z,100.00
2023-03-06T22:48:59.143Z,100.00
2023-03-06T22:51:28.856Z,100.00
2023-03-06T22:53:56.921Z,100.00
2023-03-06T22:56:26.804Z,100.00
2023-03-06T22:58:54.940Z,100.00
2023-03-06T23:01:25.285Z,100.00
2023-03-06T23:03:55.115Z,100.00
2023-03-06T23:06:28.052Z,100.00
2023-03-06T23:08:58.460Z,100.00
2023-03-06T23:11:29.588Z,100.00
2023-03-06T23:13:58.679Z,100.00
2023-03-06T23:16:26.878Z,100.00
2023-03-06T23:18:57.194Z,100.00
2023-03-06T23:21:25.855Z,100.00
2023-03-06T23:23:55.038Z,100.00
2023-03-06T23:26:25.624Z,100.00
2023-03-06T23:28:55.294Z,100.00
2023-03-06T23:31:28.444Z,100.00
2023-03-06T23:33:58.834Z,100.00
2023-03-06T23:36:27.265Z,100.00
2023-03-06T23:38:55.813Z,100.00
2023-03-06T23:41:24.804Z,100.00
2023-03-06T23:43:55.144Z,100.00
2023-03-06T23:46:24.974Z,100.00
2023-03-06T23:48:53.495Z,100.00
2023-03-06T23:51:23.504Z,100.00
2023-03-06T23:53:56.280Z,100.00
2023-03-06T23:56:25.410Z,100.00
2023-03-06T23:58:53.460Z,100.00
